Time;durP1;ratioP1;P1;durP2;ratioP2;P2;SDS_P1;SDS_P2;PMS_P1;PMS_P2;Temp;Humidity;BMP_temperature;BMP_pressure;BME280_temperature;BME280_humidity;BME280_pressure;Samples;Min_cycle;Max_cycle;Signal;HPM_P1;HPM_P2
2023/10/19 00:00:56;;;;;;;18.67;12.80;;;;;;;9.54;100.00;99199.00;5052656;28;20411;-48
2023/10/19 00:03:25;;;;;;;17.35;13.23;;;;;;;9.55;100.00;99186.72;5052589;28;20044;-48
2023/10/19 00:05:53;;;;;;;16.58;13.18;;;;;;;9.58;100.00;99184.66;5052789;28;20052;-49
2023/10/19 00:08:21;;;;;;;16.52;12.63;;;;;;;9.64;100.00;99192.00;5053326;28;20053;-52
2023/10/19 00:11:02;;;;;;;18.48;14.50;;;;;;;9.69;100.00;99190.78;5052920;28;20080;-48
2023/10/19 00:13:30;;;;;;;19.00;14.57;;;;;;;9.70;100.00;99192.44;5052934;28;20080;-50
2023/10/19 00:15:59;;;;;;;19.40;15.10;;;;;;;9.72;100.00;99182.63;5052785;28;20037;-46
2023/10/19 00:18:27;;;;;;;17.90;14.05;;;;;;;9.75;100.00;99180.56;5052311;28;20080;-50
2023/10/19 00:20:59;;;;;;;19.50;15.20;;;;;;;9.78;100.00;99185.53;5047703;28;20059;-48
2023/10/19 00:23:31;;;;;;;21.00;15.82;;;;;;;9.81;100.00;99177.38;5050934;28;20128;-47
2023/10/19 00:26:07;;;;;;;19.85;15.70;;;;;;;9.83;100.00;99182.53;5052776;28;20067;-47
2023/10/19 00:28:38;;;;;;;18.58;15.23;;;;;;;9.87;100.00;99176.03;5051791;28;20045;-46
2023/10/19 00:31:08;;;;;;;20.23;16.27;;;;;;;9.89;100.00;99181.97;5052442;28;20056;-47
2023/10/19 00:33:38;;;;;;;21.23;17.08;;;;;;;9.93;100.00;99183.34;5052677;28;20462;-47
2023/10/19 00:36:08;;;;;;;19.25;16.13;;;;;;;9.98;100.00;99180.34;5052320;28;20045;-48
2023/10/19 00:38:39;;;;;;;20.25;17.33;;;;;;;9.99;100.00;99171.47;5052414;28;20561;-48
2023/10/19 00:41:13;;;;;;;18.88;16.50;;;;;;;10.06;100.00;99177.84;5052258;28;20110;-48
2023/10/19 00:43:44;;;;;;;20.30;16.98;;;;;;;10.07;100.00;99168.16;5052325;28;20060;-48
2023/10/19 00:46:20;;;;;;;21.80;17.45;;;;;;;10.07;100.00;99157.66;5052168;28;20056;-49
2023/10/19 00:48:55;;;;;;;21.00;15.93;;;;;;;10.16;100.00;99162.09;5052028;28;20053;-47
2023/10/19 00:51:38;;;;;;;21.23;16.45;;;;;;;10.14;100.00;99162.22;5052311;28;20527;-48
2023/10/19 00:54:10;;;;;;;22.13;17.43;;;;;;;10.18;100.00;99157.50;5052043;28;20059;-47
2023/10/19 00:56:41;;;;;;;20.80;15.75;;;;;;;10.18;100.00;99151.44;5051893;28;20056;-52
2023/10/19 00:59:14;;;;;;;21.63;16.50;;;;;;;10.23;100.00;99160.56;5052174;28;20057;-56
2023/10/19 01:01:47;;;;;;;20.02;15.75;;;;;;;10.23;100.00;99154.50;5052210;28;20049;-55
2023/10/19 01:04:22;;;;;;;22.98;16.50;;;;;;;10.22;100.00;99164.16;5051984;28;20059;-55
2023/10/19 01:07:05;;;;;;;22.65;16.73;;;;;;;10.22;100.00;99160.69;5051753;28;20385;-53
2023/10/19 01:09:36;;;;;;;22.27;15.93;;;;;;;10.21;100.00;99162.50;5051738;28;20128;-55
2023/10/19 01:12:21;;;;;;;20.80;15.93;;;;;;;10.24;100.00;99161.38;5051901;28;20048;-55
2023/10/19 01:15:07;;;;;;;20.92;16.25;;;;;;;10.23;100.00;99157.94;5047702;28;20053;-54
2023/10/19 01:17:39;;;;;;;21.10;16.15;;;;;;;10.26;100.00;99155.03;5049759;28;20052;-55
2023/10/19 01:20:17;;;;;;;21.63;16.95;;;;;;;10.26;100.00;99144.50;5050403;28;20057;-53
2023/10/19 01:23:10;;;;;;;22.50;16.02;;;;;;;10.35;100.00;99150.78;5051689;28;20041;-54
2023/10/19 01:25:49;;;;;;;;;;;;;;;10.31;100.00;99152.00;5051299;28;20041;-54
2023/10/19 01:28:18;;;;;;;21.55;16.08;;;;;;;10.34;100.00;99143.00;5048344;28;19925;-55
2023/10/19 01:30:51;;;;;;;20.05;17.00;;;;;;;10.35;100.00;99145.53;5047987;28;20504;-56
2023/10/19 01:33:21;;;;;;;22.83;17.65;;;;;;;10.36;100.00;99149.81;5050988;28;20045;-56
2023/10/19 01:38:36;;;;;;;22.17;15.85;;;;;;;10.40;100.00;99138.06;5049112;28;21047;-54
2023/10/19 01:41:06;;;;;;;20.48;16.40;;;;;;;10.46;100.00;99126.16;5054619;28;20423;-54
2023/10/19 01:43:36;;;;;;;21.98;17.08;;;;;;;10.44;100.00;99128.91;5055516;28;20037;-54
2023/10/19 01:46:04;;;;;;;23.25;17.77;;;;;;;10.51;100.00;99130.97;5055537;28;20047;-52
2023/10/19 01:48:37;;;;;;;22.98;17.23;;;;;;;10.52;100.00;99124.75;5055494;28;20431;-54
2023/10/19 01:51:05;;;;;;;22.80;17.67;;;;;;;10.54;100.00;99126.25;5054494;28;20484;-55
2023/10/19 01:53:39;;;;;;;22.92;17.35;;;;;;;10.56;100.00;99121.69;5052551;28;20125;-54
2023/10/19 01:56:09;;;;;;;24.45;17.08;;;;;;;10.65;100.00;99118.19;5052384;28;20049;-55
2023/10/19 01:58:37;;;;;;;25.40;17.15;;;;;;;10.64;100.00;99108.66;5055074;28;20064;-56
2023/10/19 02:01:14;;;;;;;22.20;17.27;;;;;;;10.64;100.00;99113.91;5054081;28;20045;-56
2023/10/19 02:03:42;;;;;;;25.17;18.13;;;;;;;10.73;100.00;99101.72;5055330;28;20036;-55
2023/10/19 02:06:16;;;;;;;22.55;17.83;;;;;;;10.80;100.00;99104.63;5055105;28;20129;-53
2023/10/19 02:08:50;;;;;;;23.60;17.67;;;;;;;10.76;100.00;99105.88;5055185;28;20536;-56
2023/10/19 02:11:21;;;;;;;21.52;17.50;;;;;;;10.79;100.00;99095.88;5050798;28;20048;-55
2023/10/19 02:13:55;;;;;;;23.65;17.40;;;;;;;10.80;100.00;99091.47;5051362;28;20441;-55
2023/10/19 02:16:23;;;;;;;22.95;18.00;;;;;;;10.82;100.00;99102.66;5054898;28;20041;-54
2023/10/19 02:18:53;;;;;;;22.92;17.42;;;;;;;10.78;100.00;99090.75;5050332;28;20060;-56
2023/10/19 02:21:22;;;;;;;21.88;17.30;;;;;;;10.77;100.00;99100.47;5051359;28;20045;-54
2023/10/19 02:23:51;;;;;;;22.63;16.40;;;;;;;10.78;100.00;99093.41;5051950;28;20687;-54
2023/10/19 02:26:19;;;;;;;21.85;16.83;;;;;;;10.85;100.00;99097.09;5053656;28;20377;-54
2023/10/19 02:28:50;;;;;;;20.80;15.15;;;;;;;10.86;100.00;99087.44;5051964;28;20045;-55
2023/10/19 02:31:20;;;;;;;22.58;16.40;;;;;;;10.92;100.00;99090.31;5052081;28;20053;-55
2023/10/19 02:33:51;;;;;;;20.67;15.35;;;;;;;10.92;100.00;99090.31;5050243;28;20049;-57
2023/10/19 02:36:20;;;;;;;23.70;16.25;;;;;;;10.94;100.00;99080.47;5054714;28;20504;-54
2023/10/19 02:38:52;;;;;;;19.95;15.93;;;;;;;10.97;100.00;99074.91;5054605;28;20064;-54
2023/10/19 02:41:21;;;;;;;23.17;16.67;;;;;;;10.99;100.00;99077.41;5054424;28;20055;-56
2023/10/19 02:43:51;;;;;;;22.90;16.63;;;;;;;11.04;100.00;99071.69;5053348;28;20049;-54
2023/10/19 02:46:20;;;;;;;21.40;16.00;;;;;;;11.04;100.00;99076.97;5054405;28;20041;-55
2023/10/19 02:48:49;;;;;;;20.90;15.38;;;;;;;11.05;100.00;99076.00;5054367;28;20061;-54
2023/10/19 02:51:19;;;;;;;24.23;15.77;;;;;;;11.05;100.00;99076.00;5053834;28;20069;-55
2023/10/19 02:53:50;;;;;;;21.60;15.63;;;;;;;11.06;100.00;99073.22;5054543;28;20195;-54
2023/10/19 02:56:18;;;;;;;23.17;15.50;;;;;;;11.10;100.00;99076.38;5054299;28;20037;-55
2023/10/19 02:58:49;;;;;;;21.48;15.75;;;;;;;11.13;100.00;99076.09;5054322;28;20056;-52
2023/10/19 03:01:21;;;;;;;20.65;15.73;;;;;;;11.13;100.00;99076.09;5054386;28;20054;-53
2023/10/19 03:03:53;;;;;;;20.33;15.27;;;;;;;11.15;100.00;99074.13;5054327;28;20059;-57
2023/10/19 03:06:22;;;;;;;18.15;13.80;;;;;;;11.13;100.00;99071.63;5053923;28;20073;-53
2023/10/19 03:08:57;;;;;;;21.38;13.95;;;;;;;11.18;100.00;99073.00;5052241;28;20045;-55
2023/10/19 03:11:27;;;;;;;19.58;14.43;;;;;;;11.18;100.00;99076.47;5053836;28;20041;-55
2023/10/19 03:13:57;;;;;;;19.00;13.57;;;;;;;11.20;100.00;99077.16;5053223;28;20504;-54
2023/10/19 03:16:30;;;;;;;21.00;14.25;;;;;;;11.24;100.00;99078.50;5049414;28;20745;-54
2023/10/19 03:18:58;;;;;;;18.30;13.57;;;;;;;11.23;100.00;99078.66;5051776;28;20067;-55
2023/10/19 03:21:27;;;;;;;17.75;13.38;;;;;;;11.23;100.00;99076.03;5054017;28;20094;-56
2023/10/19 03:24:01;;;;;;;17.55;12.70;;;;;;;11.24;100.00;99077.69;5050777;28;20053;-55
2023/10/19 03:26:36;;;;;;;16.58;12.18;;;;;;;11.25;100.00;99074.91;5049821;28;20055;-55
2023/10/19 03:29:07;;;;;;;18.60;12.25;;;;;;;11.29;100.00;99067.56;5053738;28;20049;-55
2023/10/19 03:31:43;;;;;;;17.17;11.77;;;;;;;11.34;100.00;99073.19;5053681;28;20407;-54
2023/10/19 03:34:12;;;;;;;15.85;11.48;;;;;;;11.39;100.00;99067.50;5052337;28;20052;-54
2023/10/19 03:36:42;;;;;;;18.63;11.10;;;;;;;11.41;100.00;99057.63;5053393;28;20049;-54
2023/10/19 03:39:13;;;;;;;14.63;10.13;;;;;;;11.49;100.00;99047.19;5053548;28;20041;-54
2023/10/19 03:41:44;;;;;;;13.82;9.20;;;;;;;11.55;100.00;99038.69;5053543;28;20045;-54
2023/10/19 03:44:19;;;;;;;15.00;8.20;;;;;;;11.61;100.00;99045.16;5053489;28;20048;-55
2023/10/19 03:46:57;;;;;;;12.88;6.22;;;;;;;11.70;100.00;99043.41;5053378;28;20079;-54
2023/10/19 03:49:33;;;;;;;11.88;6.22;;;;;;;11.72;100.00;99050.19;5053109;28;20049;-56
2023/10/19 03:52:19;;;;;;;10.68;5.72;;;;;;;11.89;100.00;99052.97;5053289;28;20045;-55
2023/10/19 03:54:48;;;;;;;12.95;5.65;;;;;;;11.95;100.00;99058.50;5053375;28;20512;-55
2023/10/19 03:57:24;;;;;;;13.43;5.75;;;;;;;12.00;100.00;99053.59;5050552;28;20104;-55
2023/10/19 03:59:56;;;;;;;15.13;6.15;;;;;;;11.99;100.00;99043.22;5049497;28;20103;-54
2023/10/19 04:02:28;;;;;;;12.70;6.40;;;;;;;12.03;100.00;99049.00;5051016;28;20140;-54
2023/10/19 04:04:57;;;;;;;16.92;6.82;;;;;;;12.05;100.00;99044.41;5052768;28;20455;-54
2023/10/19 04:07:26;;;;;;;13.73;6.97;;;;;;;12.05;100.00;99039.13;5052809;28;20044;-54
2023/10/19 04:10:08;;;;;;;13.45;7.45;;;;;;;12.02;100.00;99044.72;5052884;28;20057;-55
2023/10/19 04:12:42;;;;;;;12.43;7.40;;;;;;;11.99;100.00;99032.69;5052927;28;20094;-56
2023/10/19 04:15:15;;;;;;;19.50;9.48;;;;;;;12.05;100.00;99033.88;5052901;28;20052;-54
2023/10/19 04:17:45;;;;;;;16.25;10.23;;;;;;;12.05;100.00;99034.69;5051210;28;20731;-54
2023/10/19 04:20:28;;;;;;;13.52;9.95;;;;;;;12.00;100.00;99032.53;5052527;28;20045;-55
2023/10/19 04:22:58;;;;;;;15.00;9.37;;;;;;;11.95;100.00;99029.50;5049094;28;20056;-56
2023/10/19 04:25:27;;;;;;;15.68;10.45;;;;;;;11.92;100.00;99037.69;5050881;28;20453;-56
2023/10/19 04:27:57;;;;;;;13.90;9.77;;;;;;;11.94;100.00;99037.53;5052520;28;20568;-56
2023/10/19 04:30:29;;;;;;;14.13;9.77;;;;;;;11.89;100.00;99031.88;5052146;28;20773;-53
2023/10/19 04:33:01;;;;;;;13.57;9.88;;;;;;;11.89;100.00;99035.38;5051812;28;20107;-53
2023/10/19 04:35:32;;;;;;;15.20;10.23;;;;;;;11.88;100.00;99033.72;5052035;28;20041;-57
2023/10/19 04:38:01;;;;;;;13.57;9.80;;;;;;;11.86;100.00;99035.66;5051894;28;20465;-55
2023/10/19 04:40:29;;;;;;;14.45;10.00;;;;;;;11.93;100.00;99031.44;5052198;28;20492;-55
2023/10/19 04:42:59;;;;;;;14.32;9.70;;;;;;;11.87;100.00;99032.03;5052211;28;20411;-55
2023/10/19 04:45:29;;;;;;;14.45;9.63;;;;;;;11.89;100.00;99024.00;5052083;28;20504;-52
2023/10/19 04:47:58;;;;;;;16.65;10.40;;;;;;;11.91;100.00;99028.13;5052167;28;20341;-55
2023/10/19 04:50:27;;;;;;;16.90;9.95;;;;;;;11.89;100.00;99039.78;5050800;28;20053;-54
2023/10/19 04:52:55;;;;;;;13.93;9.73;;;;;;;11.89;100.00;99039.78;5050072;28;20111;-55
2023/10/19 04:55:25;;;;;;;13.82;9.48;;;;;;;11.93;100.00;99039.34;5049396;28;20053;-55
2023/10/19 04:57:53;;;;;;;14.48;10.07;;;;;;;11.92;100.00;99040.31;5050029;28;20496;-55
2023/10/19 05:00:24;;;;;;;15.00;9.18;;;;;;;11.91;100.00;99035.22;5052149;28;20446;-55
2023/10/19 05:02:53;;;;;;;17.05;9.25;;;;;;;11.88;100.00;99031.06;5050886;28;20052;-50
2023/10/19 05:05:22;;;;;;;15.70;10.35;;;;;;;11.90;100.00;99037.03;5052078;28;20476;-50
2023/10/19 05:07:50;;;;;;;15.63;10.20;;;;;;;11.89;100.00;99037.16;5049063;28;20115;-48
2023/10/19 05:10:19;;;;;;;14.43;9.52;;;;;;;11.86;100.00;99035.66;5049018;28;20484;-48
2023/10/19 05:12:48;;;;;;;15.18;9.95;;;;;;;11.86;100.00;99040.09;5051641;28;20504;-47
2023/10/19 05:15:18;;;;;;;14.52;9.73;;;;;;;11.84;100.00;99045.53;5051474;28;20525;-47
2023/10/19 05:17:47;;;;;;;14.32;9.38;;;;;;;11.82;100.00;99044.84;5051572;28;20518;-48
2023/10/19 05:20:17;;;;;;;15.40;10.60;;;;;;;11.81;100.00;99038.75;5051781;28;20049;-47
2023/10/19 05:22:45;;;;;;;21.85;9.73;;;;;;;11.79;100.00;99040.72;5051624;28;20049;-48
2023/10/19 05:25:14;;;;;;;16.08;9.77;;;;;;;11.81;100.00;99051.09;5051565;28;20055;-46
2023/10/19 05:27:45;;;;;;;12.95;9.30;;;;;;;11.81;100.00;99044.03;5051444;28;20041;-45
2023/10/19 05:30:14;;;;;;;15.73;8.90;;;;;;;11.78;100.00;99048.75;5050225;28;20056;-47
2023/10/19 05:32:42;;;;;;;15.10;8.07;;;;;;;11.76;100.00;99045.47;5051544;28;20060;-46
2023/10/19 05:35:13;;;;;;;14.38;8.25;;;;;;;11.74;100.00;99055.31;5051713;28;20472;-47
2023/10/19 05:37:42;;;;;;;12.90;7.90;;;;;;;11.71;100.00;99060.88;5051280;28;20396;-46
2023/10/19 05:40:14;;;;;;;11.75;8.00;;;;;;;11.69;100.00;99060.22;5051419;28;20060;-47
2023/10/19 05:42:43;;;;;;;11.75;7.72;;;;;;;11.63;100.00;99054.56;5051699;28;20461;-47
2023/10/19 05:45:12;;;;;;;12.07;7.45;;;;;;;11.62;100.00;99060.00;5051617;28;20048;-46
2023/10/19 05:47:41;;;;;;;12.65;7.65;;;;;;;11.61;100.00;99061.78;5051316;28;20412;-46
2023/10/19 05:50:14;;;;;;;12.70;7.32;;;;;;;11.59;100.00;99060.28;5051303;28;20175;-46
2023/10/19 05:52:44;;;;;;;10.77;6.90;;;;;;;11.59;100.00;99065.53;5051556;28;20625;-50
2023/10/19 05:55:12;;;;;;;10.80;7.30;;;;;;;11.58;100.00;99064.72;5051431;28;20136;-49
2023/10/19 05:57:41;;;;;;;12.05;7.45;;;;;;;11.60;100.00;99062.78;5051239;28;20045;-49
2023/10/19 06:00:13;;;;;;;12.80;7.40;;;;;;;11.61;100.00;99064.41;5050846;28;20079;-46
2023/10/19 06:02:44;;;;;;;14.40;7.18;;;;;;;11.63;100.00;99062.47;5050973;28;20451;-46
2023/10/19 06:05:15;;;;;;;16.05;9.20;;;;;;;11.62;100.00;99063.44;5051236;28;20060;-47
2023/10/19 06:07:46;;;;;;;13.43;9.40;;;;;;;11.65;100.00;99068.41;5051122;28;20127;-48
2023/10/19 06:10:20;;;;;;;15.65;9.02;;;;;;;11.66;100.00;99064.78;5049781;28;20052;-46
2023/10/19 06:12:51;;;;;;;18.63;8.05;;;;;;;11.69;100.00;99073.38;5051046;28;20068;-48
2023/10/19 06:15:23;;;;;;;14.18;8.02;;;;;;;11.69;100.00;99070.75;5048021;28;20052;-48
2023/10/19 06:17:52;;;;;;;10.65;7.70;;;;;;;11.72;100.00;99075.72;5048869;28;20407;-46
2023/10/19 06:20:23;;;;;;;11.90;7.15;;;;;;;11.72;100.00;99079.16;5048314;28;20059;-48
2023/10/19 06:22:55;;;;;;;12.82;7.70;;;;;;;11.79;100.00;99089.94;5046490;28;20060;-46
2023/10/19 06:25:25;;;;;;;17.17;7.77;;;;;;;11.79;100.00;99085.50;5050870;28;20462;-49
2023/10/19 06:27:56;;;;;;;11.05;7.55;;;;;;;11.84;100.00;99090.31;5051264;28;20544;-45
2023/10/19 06:30:26;;;;;;;12.02;7.15;;;;;;;11.86;100.00;99087.53;5051323;28;20053;-56
2023/10/19 06:33:00;;;;;;;12.00;6.85;;;;;;;11.86;100.00;99088.34;5055059;28;20049;-54
2023/10/19 06:35:31;;;;;;;12.80;7.80;;;;;;;11.86;100.00;99085.69;5055230;28;20415;-55
2023/10/19 06:38:03;;;;;;;10.48;6.68;;;;;;;11.88;100.00;99086.38;5055078;28;20079;-55
2023/10/19 06:40:32;;;;;;;13.90;7.30;;;;;;;11.90;100.00;99088.88;5054452;28;20544;-55
2023/10/19 06:43:05;;;;;;;14.63;7.72;;;;;;;11.91;100.00;99093.16;5051484;28;20049;-55
2023/10/19 06:45:33;;;;;;;15.95;7.47;;;;;;;11.92;100.00;99092.19;5053024;28;20041;-55
2023/10/19 06:48:01;;;;;;;9.90;7.07;;;;;;;11.92;100.00;99094.84;5054394;28;20052;-56
2023/10/19 06:50:30;;;;;;;12.35;7.00;;;;;;;11.95;100.00;99091.91;5054467;28;20098;-55
2023/10/19 06:53:05;;;;;;;14.60;7.10;;;;;;;12.03;100.00;99091.97;5054450;28;20702;-54
2023/10/19 06:55:33;;;;;;;11.77;7.03;;;;;;;12.02;100.00;99092.13;5053055;28;20048;-56
2023/10/19 06:58:02;;;;;;;14.98;7.82;;;;;;;12.08;100.00;99092.38;5049921;28;20090;-55
2023/10/19 07:00:30;;;;;;;17.40;8.63;;;;;;;12.10;100.00;99089.56;5053272;28;20087;-55
2023/10/19 07:03:02;;;;;;;15.35;8.75;;;;;;;12.10;100.00;99094.84;5054146;28;20041;-55
2023/10/19 07:05:30;;;;;;;14.98;8.82;;;;;;;12.12;100.00;99098.13;5053616;28;20404;-54
2023/10/19 07:07:59;;;;;;;13.45;7.45;;;;;;;12.11;100.00;99102.59;5050841;28;20903;-55
2023/10/19 07:10:29;;;;;;;13.48;6.88;;;;;;;12.10;100.00;99103.56;5051334;28;20053;-54
2023/10/19 07:12:58;;;;;;;16.30;7.65;;;;;;;12.13;100.00;99105.91;5053686;28;20454;-52
2023/10/19 07:15:28;;;;;;;13.98;7.75;;;;;;;12.15;100.00;99111.84;5053660;28;20052;-55
2023/10/19 07:17:56;;;;;;;12.05;7.75;;;;;;;12.18;100.00;99114.16;5050555;28;20053;-55
2023/10/19 07:20:26;;;;;;;10.88;6.95;;;;;;;12.21;100.00;99113.03;5048818;28;20045;-54
2023/10/19 07:22:56;;;;;;;9.80;6.63;;;;;;;12.19;100.00;99125.56;5054127;28;20072;-56
2023/10/19 07:25:25;;;;;;;13.13;6.30;;;;;;;12.20;100.00;99123.75;5053590;28;20454;-55
2023/10/19 07:27:55;;;;;;;13.30;6.45;;;;;;;12.25;100.00;99129.38;5053605;28;20048;-54
2023/10/19 07:30:26;;;;;;;12.00;5.97;;;;;;;12.25;100.00;99127.56;5053704;28;20048;-56
2023/10/19 07:32:58;;;;;;;15.00;6.05;;;;;;;12.29;100.00;99125.47;5053565;28;20080;-56
2023/10/19 07:35:27;;;;;;;12.73;6.35;;;;;;;12.30;100.00;99122.66;5053737;28;20053;-56
2023/10/19 07:37:56;;;;;;;13.35;6.60;;;;;;;12.34;100.00;99124.03;5051441;28;20496;-56
2023/10/19 07:40:25;;;;;;;14.40;6.90;;;;;;;12.39;100.00;99130.63;5049541;28;20045;-49
2023/10/19 07:42:55;;;;;;;11.93;6.20;;;;;;;12.40;100.00;99133.13;5053106;28;20044;-46
2023/10/19 07:45:23;;;;;;;11.25;5.85;;;;;;;12.45;100.00;99130.84;5051917;28;20454;-48
2023/10/19 07:47:51;;;;;;;14.68;5.85;;;;;;;12.49;100.00;99126.94;5049760;28;20095;-46
2023/10/19 07:50:22;;;;;;;13.20;5.45;;;;;;;12.56;100.00;99135.06;5050915;28;20499;-47
2023/10/19 07:52:53;;;;;;;14.57;5.65;;;;;;;12.62;100.00;99136.25;5053262;28;20056;-45
2023/10/19 07:55:23;;;;;;;9.35;4.57;;;;;;;12.65;100.00;99136.78;5053315;28;20481;-46
2023/10/19 07:57:52;;;;;;;10.13;3.67;;;;;;;12.73;100.00;99135.97;5052153;28;20049;-46
2023/10/19 08:00:23;;;;;;;12.48;3.20;;;;;;;12.81;100.00;99140.47;5049877;28;20033;-46
2023/10/19 08:02:53;;;;;;;9.25;2.70;;;;;;;12.83;100.00;99128.78;5051824;28;20045;-46
2023/10/19 08:05:22;;;;;;;11.55;2.95;;;;;;;12.90;100.00;99136.06;5053052;28;20103;-47
2023/10/19 08:07:50;;;;;;;13.23;2.90;;;;;;;12.96;100.00;99135.44;5049708;28;20499;-46
2023/10/19 08:10:20;;;;;;;13.35;2.95;;;;;;;13.00;100.00;99128.88;5050749;28;20103;-45
2023/10/19 08:12:50;;;;;;;8.38;2.38;;;;;;;13.05;100.00;99133.66;5052969;28;20099;-45
2023/10/19 08:15:20;;;;;;;12.10;3.63;;;;;;;13.09;100.00;99127.09;5052703;28;20254;-46
2023/10/19 08:17:53;;;;;;;14.52;3.22;;;;;;;13.13;100.00;99128.44;5052637;28;20052;-48
2023/10/19 08:20:30;;;;;;;14.88;3.33;;;;;;;13.14;100.00;99128.31;5052534;28;20072;-49
2023/10/19 08:23:02;;;;;;;10.80;2.63;;;;;;;13.16;100.00;99126.31;5051575;28;20063;-47
2023/10/19 08:25:31;;;;;;;15.40;3.13;;;;;;;13.21;100.00;99128.50;5049740;28;20519;-46
2023/10/19 08:28:02;;;;;;;8.88;2.70;;;;;;;13.25;100.00;99134.25;5051732;28;20102;-48
2023/10/19 08:30:30;;;;;;;11.55;2.65;;;;;;;13.33;100.00;99129.00;5052464;28;20047;-47
2023/10/19 08:33:02;;;;;;;11.13;2.63;;;;;;;13.34;100.00;99128.84;5052387;28;20045;-48
2023/10/19 08:35:30;;;;;;;13.63;2.80;;;;;;;13.38;100.00;99121.47;5052507;28;20041;-49
2023/10/19 08:38:04;;;;;;;11.40;3.15;;;;;;;13.40;100.00;99129.25;5052941;28;20439;-46
2023/10/19 08:40:32;;;;;;;10.27;2.72;;;;;;;13.44;100.00;99125.28;5052298;28;20136;-46
2023/10/19 08:43:00;;;;;;;11.57;2.45;;;;;;;13.48;100.00;99131.91;5052343;28;20060;-47
2023/10/19 08:45:28;;;;;;;12.18;2.78;;;;;;;13.54;100.00;99123.34;5052161;28;20496;-45
2023/10/19 08:47:58;;;;;;;13.30;3.20;;;;;;;13.56;100.00;99113.44;5052112;28;20123;-48
2023/10/19 08:50:29;;;;;;;12.82;3.42;;;;;;;13.61;100.00;99124.34;5051662;28;20064;-48
2023/10/19 08:52:59;;;;;;;9.82;3.88;;;;;;;13.64;100.00;99121.38;5052295;28;20041;-48
2023/10/19 08:55:27;;;;;;;11.50;3.67;;;;;;;13.72;100.00;99119.75;5050828;28;20049;-48
2023/10/19 08:58:16;;;;;;;11.15;4.57;;;;;;;13.77;100.00;99115.66;5050964;28;20041;-47
2023/10/19 09:00:48;;;;;;;13.80;4.70;;;;;;;13.85;100.00;99117.44;5052203;28;20045;-46
2023/10/19 09:03:17;;;;;;;14.27;5.18;;;;;;;13.90;100.00;99116.97;5050592;28;20053;-46
2023/10/19 09:05:47;;;;;;;15.50;5.07;;;;;;;13.92;100.00;99107.91;5052068;28;20048;-46
2023/10/19 09:08:18;;;;;;;16.58;5.60;;;;;;;13.97;100.00;99105.56;5051939;28;20463;-45
2023/10/19 09:10:47;;;;;;;14.63;5.20;;;;;;;14.00;100.00;99105.25;5051613;28;20053;-46
2023/10/19 09:13:18;;;;;;;15.32;5.38;;;;;;;14.04;100.00;99103.09;5051901;28;20056;-46
2023/10/19 09:15:49;;;;;;;14.75;4.75;;;;;;;14.08;100.00;99093.03;5051937;28;20053;-47
2023/10/19 09:18:19;;;;;;;20.17;5.78;;;;;;;14.11;100.00;99097.97;5051592;28;20123;-49
2023/10/19 09:20:56;;;;;;;14.95;4.55;;;;;;;14.16;100.00;99099.13;5051634;28;20051;-48
2023/10/19 09:23:27;;;;;;;12.57;4.53;;;;;;;14.22;100.00;99095.03;5051565;28;20051;-47
2023/10/19 09:25:58;;;;;;;11.38;3.88;;;;;;;14.34;100.00;99100.78;5051517;28;20147;-45
2023/10/19 09:28:26;;;;;;;16.55;4.65;;;;;;;14.35;100.00;99107.72;5051769;28;20051;-45
2023/10/19 09:30:54;;;;;;;12.40;3.38;;;;;;;14.36;100.00;99110.19;5051408;28;20041;-46
2023/10/19 09:33:24;;;;;;;12.50;3.97;;;;;;;14.44;100.00;99113.81;5051450;28;20381;-55
2023/10/19 09:35:56;;;;;;;11.90;4.03;;;;;;;14.46;100.00;99110.03;5051522;28;20067;-53
2023/10/19 09:38:24;;;;;;;12.57;3.75;;;;;;;14.54;100.00;99110.00;5051552;28;20050;-53
2023/10/19 09:40:54;;;;;;;10.50;3.95;;;;;;;14.65;100.00;99108.06;5051431;28;20036;-53
2023/10/19 09:43:32;;;;;;;12.05;3.75;;;;;;;14.78;100.00;99112.81;5051742;28;20033;-54
2023/10/19 09:46:07;;;;;;;10.45;3.90;;;;;;;14.82;100.00;99109.66;5050318;28;20056;-54
2023/10/19 09:48:41;;;;;;;12.50;3.80;;;;;;;14.91;100.00;99107.81;5048046;28;20049;-54
2023/10/19 09:51:16;;;;;;;11.55;3.83;;;;;;;14.98;100.00;99111.44;5050311;28;20120;-56
2023/10/19 09:53:49;;;;;;;9.35;3.50;;;;;;;14.99;100.00;99105.13;5051585;28;20114;-55
2023/10/19 09:56:22;;;;;;;9.98;3.35;;;;;;;15.05;100.00;99106.28;5048698;28;20052;-55
2023/10/19 09:58:54;;;;;;;12.80;4.15;;;;;;;15.14;100.00;99093.84;5049183;28;20049;-54
2023/10/19 10:01:23;;;;;;;12.57;3.40;;;;;;;15.31;100.00;99087.47;5052667;28;20067;-55
2023/10/19 10:03:57;;;;;;;11.98;3.40;;;;;;;15.45;100.00;99085.09;5055290;28;20048;-55
2023/10/19 10:06:31;;;;;;;11.25;3.00;;;;;;;15.56;100.00;99089.97;5055298;28;20044;-54
2023/10/19 10:09:03;;;;;;;9.95;2.45;;;;;;;15.67;100.00;99092.22;5055254;28;20048;-54
2023/10/19 10:11:31;;;;;;;8.13;2.70;;;;;;;15.77;100.00;99097.28;5055215;28;20045;-55
2023/10/19 10:13:59;;;;;;;12.10;3.10;;;;;;;15.85;100.00;99089.31;5055273;28;20056;-54
2023/10/19 10:16:29;;;;;;;9.75;3.08;;;;;;;16.00;100.00;99088.56;5055188;28;20136;-54
2023/10/19 10:19:00;;;;;;;10.57;3.10;;;;;;;16.12;100.00;99088.97;5053907;28;20676;-53
2023/10/19 10:21:30;;;;;;;10.25;2.50;;;;;;;16.23;100.00;99097.28;5052160;28;20045;-55
2023/10/19 10:24:00;;;;;;;12.48;3.20;;;;;;;16.26;100.00;99088.16;5051477;28;20140;-55
2023/10/19 10:26:35;;;;;;;10.88;2.75;;;;;;;16.53;100.00;99102.66;5055028;28;20135;-55
2023/10/19 10:29:09;;;;;;;11.40;3.33;;;;;;;16.73;100.00;99102.16;5051996;28;20057;-56
2023/10/19 10:31:42;;;;;;;10.27;2.83;;;;;;;16.73;100.00;99100.31;5052244;28;20502;-56
2023/10/19 10:34:10;;;;;;;;;;;;;;;16.81;100.00;99106.53;5052862;28;20044;-56
2023/10/19 10:37:05;;;;;;;10.57;2.90;;;;;;;16.88;100.00;99108.28;5052113;28;20042;-56
2023/10/19 10:39:34;;;;;;;9.00;2.80;;;;;;;16.94;100.00;99109.41;5051829;28;20076;-56
2023/10/19 10:42:05;;;;;;;13.68;3.28;;;;;;;16.98;100.00;99105.38;5054475;28;20059;-55
2023/10/19 10:44:38;;;;;;;10.40;2.63;;;;;;;17.00;100.00;99099.88;5054525;28;20520;-56
2023/10/19 10:47:09;;;;;;;11.48;2.97;;;;;;;17.05;100.00;99095.66;5054788;28;20529;-56
2023/10/19 10:49:49;;;;;;;7.82;2.45;;;;;;;17.20;100.00;99090.31;5054141;28;20548;-56
2023/10/19 10:52:33;;;;;;;9.15;2.60;;;;;;;17.31;100.00;99091.69;5054197;28;20049;-54
2023/10/19 10:55:10;;;;;;;11.88;2.80;;;;;;;17.54;100.00;99074.78;5053279;28;20045;-56
2023/10/19 10:57:40;;;;;;;10.68;3.10;;;;;;;17.60;100.00;99074.03;5050231;28;20072;-56
2023/10/19 11:00:15;;;;;;;10.18;2.70;;;;;;;17.61;100.00;99061.56;5052299;28;20075;-54
2023/10/19 11:02:45;;;;;;;11.32;3.00;;;;;;;17.62;100.00;99052.59;5054344;28;20103;-54
2023/10/19 11:05:15;;;;;;;11.48;2.60;;;;;;;17.55;100.00;99057.84;5054356;28;20044;-57
2023/10/19 11:08:06;;;;;;;10.20;2.20;;;;;;;17.54;100.00;99062.31;5054693;28;20052;-56
2023/10/19 11:10:36;;;;;;;11.70;2.97;;;;;;;17.58;100.00;99052.13;5054385;28;20080;-56
2023/10/19 11:13:05;;;;;;;12.27;2.95;;;;;;;17.67;100.00;99051.00;5053785;28;20053;-56
2023/10/19 11:15:34;;;;;;;10.00;2.42;;;;;;;17.69;100.00;99056.13;5053689;28;20060;-56
2023/10/19 11:18:02;;;;;;;12.35;3.40;;;;;;;17.65;100.00;99065.47;5050927;28;20383;-55
2023/10/19 11:20:31;;;;;;;8.75;2.30;;;;;;;17.71;100.00;99062.06;5049655;28;20059;-57
2023/10/19 11:23:00;;;;;;;11.50;2.80;;;;;;;17.81;100.00;99061.75;5050809;28;20496;-56
2023/10/19 11:25:31;;;;;;;10.73;3.38;;;;;;;17.99;100.00;99059.50;5051284;28;20048;-57
2023/10/19 11:28:04;;;;;;;9.55;2.72;;;;;;;18.40;100.00;99061.44;5051397;28;20131;-56
2023/10/19 11:30:33;;;;;;;15.60;3.88;;;;;;;18.78;100.00;99062.91;5053953;28;20563;-57
2023/10/19 11:33:02;;;;;;;11.43;2.72;;;;;;;19.06;100.00;99062.88;5053483;28;20067;-56
2023/10/19 11:35:32;;;;;;;9.45;2.97;;;;;;;19.17;100.00;99055.31;5053653;28;20500;-55
2023/10/19 11:38:02;;;;;;;11.73;3.53;;;;;;;19.19;100.00;99040.78;5053973;28;20051;-57